Bookmark and Share
Track history (hours):
 

Marco Polo

Last reported at 2014-Apr-16 10:08 UTC. Time now 2014-Apr-16 13:47 UTC.
Position N 24°25' E 118°17'.

Length 32 m.

MMSI: 416000256.

NotesDate/timePositionNaut miles runAvg speedWind from/ knotsBaromVisibWave heightAir tempDewpointWater temp
2014-Apr-16 10:08N 24°25' E 118°17'712.2
2014-Apr-16 09:33N 24°31' E 118°13'7 0.3
2014-Apr-15 08:31N 24°25' E 118°17'1313.7
2014-Apr-15 07:34N 24°27' E 118°03'2 2.4
2014-Apr-15 06:33N 24°29' E 118°04'0 0.4
2014-Apr-15 05:34N 24°29' E 118°04'13 6.3
2014-Apr-15 03:33N 24°25' E 118°17'0 0.0
2014-Apr-15 02:34N 24°25' E 118°17'3 2.5
2014-Apr-15 01:33N 24°28' E 118°17'4 0.1
2014-Apr-13 11:09N 24°24' E 118°15'915.2
2014-Apr-13 10:33N 24°26' E 118°05'1 0.8
2014-Apr-13 09:33N 24°26' E 118°04'1211.9
2014-Apr-13 08:33N 24°25' E 118°17'0 0.5
2014-Apr-13 07:33N 24°25' E 118°17'0 0.0
2014-Apr-13 06:33N 24°25' E 118°17'0 0.0
2014-Apr-13 05:33N 24°25' E 118°17'7 6.8
2014-Apr-13 04:33N 24°31' E 118°13'0 0.2
2014-Apr-13 03:29N 24°31' E 118°13'7 7.5
2014-Apr-13 02:30N 24°25' E 118°17'0 0.0
2014-Apr-12 07:29N 24°25' E 118°17'1314.2
2014-Apr-12 06:34N 24°27' E 118°03'2 2.0
2014-Apr-12 05:33N 24°29' E 118°04'1 0.5
2014-Apr-12 04:34N 24°29' E 118°04'1311.8
2014-Apr-12 03:28N 24°25' E 118°17'1 1.6
2014-Apr-12 02:33N 24°27' E 118°17'7 7.5
2014-Apr-12 01:33N 24°32' E 118°12'9 8.6
2014-Apr-12 00:33N 24°25' E 118°17'0 0.0
2014-Apr-11 10:08N 24°25' E 118°17'711.8
2014-Apr-11 09:33N 24°31' E 118°14'1 0.9
2014-Apr-11 08:33N 24°32' E 118°13'8 7.5
2014-Apr-11 07:31N 24°25' E 118°17'0 0.1
2014-Apr-11 06:30N 24°25' E 118°17'0 0.0
2014-Apr-11 05:31N 24°25' E 118°17'6 6.1
2014-Apr-11 04:33N 24°23' E 118°11'9 8.8
2014-Apr-11 03:34N 24°29' E 118°04'1 1.0
2014-Apr-11 02:34N 24°28' E 118°04'1312.4
2014-Apr-11 01:32N 24°25' E 118°17'0 0.2
2014-Apr-11 00:33N 24°25' E 118°17'1 0.0
2014-Apr-10 09:31N 24°25' E 118°17'1313.6
2014-Apr-10 08:34N 24°27' E 118°03'2 2.3
2014-Apr-10 07:33N 24°29' E 118°04'2 2.2
2014-Apr-10 06:34N 24°27' E 118°03'1311.0
2014-Apr-10 05:21N 24°25' E 118°17'0 0.0
2014-Apr-09 07:16N 24°25' E 118°17'6 8.2
2014-Apr-09 06:33N 24°31' E 118°14'2 2.1
2014-Apr-09 05:33N 24°32' E 118°12'8 7.9
2014-Apr-09 04:32N 24°25' E 118°17'0 0.0
2014-Apr-09 03:28N 24°25' E 118°17'7 8.0
2014-Apr-09 02:33N 24°22' E 118°10'8 8.4
2014-Apr-09 01:33N 24°29' E 118°04'1312.1
2014-Apr-09 00:30N 24°25' E 118°17'11 0.8
2014-Apr-08 10:27N 24°25' E 118°05'4 4.4
2014-Apr-08 09:34N 24°29' E 118°04'1211.9
2014-Apr-08 08:34N 24°25' E 118°16'1 1.2
2014-Apr-08 07:33N 24°25' E 118°17'0 0.0
2014-Apr-08 06:31N 24°25' E 118°17'0 0.0
2014-Apr-08 05:32N 24°25' E 118°17'6 6.5
2014-Apr-08 04:33N 24°31' E 118°14'2 1.8
2014-Apr-08 03:33N 24°32' E 118°13'8 7.0
2014-Apr-08 02:29N 24°25' E 118°17'0 0.0
2014-Apr-07 04:22N 24°25' E 118°17'0 0.0
2014-Apr-07 03:33N 24°25' E 118°17'9 8.6
2014-Apr-07 02:33N 24°23' E 118°08'1413.8
2014-Apr-07 01:32N 24°25' E 117°53'3 3.4
2014-Apr-07 00:33N 24°26' E 117°50'0 0.1
2014-Apr-06 23:32N 24°27' E 117°50'0 0.1
2014-Apr-06 22:32N 24°26' E 117°50'  

Dump ship's entire track history

sailing weather and tide predictions

Marco Polo — BR2031 — position and weather